sensor_id;sensor_type;location;lat;lon;timestamp;P1;durP1;ratioP1;P2;durP2;ratioP2
17145;SDS011;8688;54.444;18.444;2024-01-30T00:03:39;49.63;;;19.73;;
17145;SDS011;8688;54.444;18.444;2024-01-30T00:06:07;35.47;;;16.80;;
17145;SDS011;8688;54.444;18.444;2024-01-30T00:08:34;37.97;;;16.40;;
17145;SDS011;8688;54.444;18.444;2024-01-30T00:11:01;33.00;;;16.23;;
17145;SDS011;8688;54.444;18.444;2024-01-30T00:13:30;32.17;;;15.47;;
17145;SDS011;8688;54.444;18.444;2024-01-30T00:15:58;37.80;;;16.00;;
17145;SDS011;8688;54.444;18.444;2024-01-30T00:18:25;41.97;;;17.87;;
17145;SDS011;8688;54.444;18.444;2024-01-30T00:20:52;40.57;;;18.27;;
17145;SDS011;8688;54.444;18.444;2024-01-30T00:23:20;42.47;;;18.80;;
17145;SDS011;8688;54.444;18.444;2024-01-30T00:25:47;44.83;;;19.17;;
17145;SDS011;8688;54.444;18.444;2024-01-30T00:28:14;42.17;;;20.27;;
17145;SDS011;8688;54.444;18.444;2024-01-30T00:30:43;40.00;;;19.20;;
17145;SDS011;8688;54.444;18.444;2024-01-30T00:33:11;39.23;;;18.37;;
17145;SDS011;8688;54.444;18.444;2024-01-30T00:35:38;36.80;;;17.57;;
17145;SDS011;8688;54.444;18.444;2024-01-30T00:38:05;39.30;;;16.67;;
17145;SDS011;8688;54.444;18.444;2024-01-30T00:40:33;40.23;;;17.30;;
17145;SDS011;8688;54.444;18.444;2024-01-30T00:43:00;32.90;;;16.00;;
17145;SDS011;8688;54.444;18.444;2024-01-30T00:45:28;37.73;;;16.33;;
17145;SDS011;8688;54.444;18.444;2024-01-30T00:47:56;33.87;;;15.53;;
17145;SDS011;8688;54.444;18.444;2024-01-30T00:50:24;36.30;;;15.87;;
17145;SDS011;8688;54.444;18.444;2024-01-30T00:52:51;36.77;;;15.77;;
17145;SDS011;8688;54.444;18.444;2024-01-30T00:55:19;35.87;;;15.63;;
17145;SDS011;8688;54.444;18.444;2024-01-30T00:57:46;36.93;;;16.13;;
17145;SDS011;8688;54.444;18.444;2024-01-30T01:00:14;37.57;;;15.80;;
17145;SDS011;8688;54.444;18.444;2024-01-30T01:02:42;36.17;;;15.77;;
17145;SDS011;8688;54.444;18.444;2024-01-30T01:05:11;36.40;;;16.93;;
17145;SDS011;8688;54.444;18.444;2024-01-30T01:07:38;39.87;;;16.73;;
17145;SDS011;8688;54.444;18.444;2024-01-30T01:10:07;39.23;;;15.87;;
17145;SDS011;8688;54.444;18.444;2024-01-30T01:12:36;36.90;;;16.53;;
17145;SDS011;8688;54.444;18.444;2024-01-30T01:15:04;34.53;;;16.53;;
17145;SDS011;8688;54.444;18.444;2024-01-30T01:17:34;39.10;;;17.37;;
17145;SDS011;8688;54.444;18.444;2024-01-30T01:20:02;37.97;;;17.00;;
17145;SDS011;8688;54.444;18.444;2024-01-30T01:22:32;37.73;;;16.93;;
17145;SDS011;8688;54.444;18.444;2024-01-30T01:25:00;35.10;;;16.47;;
17145;SDS011;8688;54.444;18.444;2024-01-30T01:27:27;34.40;;;16.60;;
17145;SDS011;8688;54.444;18.444;2024-01-30T01:29:55;37.50;;;17.40;;
17145;SDS011;8688;54.444;18.444;2024-01-30T01:32:22;39.03;;;17.70;;
17145;SDS011;8688;54.444;18.444;2024-01-30T01:34:49;38.67;;;18.80;;
17145;SDS011;8688;54.444;18.444;2024-01-30T01:37:17;37.70;;;18.03;;
17145;SDS011;8688;54.444;18.444;2024-01-30T01:39:47;39.47;;;17.03;;
17145;SDS011;8688;54.444;18.444;2024-01-30T01:42:15;38.10;;;18.07;;
17145;SDS011;8688;54.444;18.444;2024-01-30T01:44:42;43.80;;;19.60;;
17145;SDS011;8688;54.444;18.444;2024-01-30T01:47:10;44.10;;;19.23;;
17145;SDS011;8688;54.444;18.444;2024-01-30T01:49:37;46.67;;;19.50;;
17145;SDS011;8688;54.444;18.444;2024-01-30T01:52:05;48.67;;;19.33;;
17145;SDS011;8688;54.444;18.444;2024-01-30T01:54:32;46.27;;;18.83;;
17145;SDS011;8688;54.444;18.444;2024-01-30T01:57:02;47.83;;;21.30;;
17145;SDS011;8688;54.444;18.444;2024-01-30T01:59:30;44.47;;;19.30;;
17145;SDS011;8688;54.444;18.444;2024-01-30T02:01:57;43.90;;;19.37;;
17145;SDS011;8688;54.444;18.444;2024-01-30T02:04:25;42.73;;;19.23;;
17145;SDS011;8688;54.444;18.444;2024-01-30T02:06:52;41.70;;;18.23;;
17145;SDS011;8688;54.444;18.444;2024-01-30T02:09:20;38.80;;;17.80;;
17145;SDS011;8688;54.444;18.444;2024-01-30T02:11:47;37.47;;;18.67;;
17145;SDS011;8688;54.444;18.444;2024-01-30T02:14:16;44.13;;;17.87;;
17145;SDS011;8688;54.444;18.444;2024-01-30T02:16:43;35.60;;;17.23;;
17145;SDS011;8688;54.444;18.444;2024-01-30T02:19:11;45.13;;;18.90;;
17145;SDS011;8688;54.444;18.444;2024-01-30T02:21:39;40.80;;;18.30;;
17145;SDS011;8688;54.444;18.444;2024-01-30T02:24:07;39.87;;;18.13;;
17145;SDS011;8688;54.444;18.444;2024-01-30T02:26:34;44.13;;;19.07;;
17145;SDS011;8688;54.444;18.444;2024-01-30T02:29:02;37.20;;;17.47;;
17145;SDS011;8688;54.444;18.444;2024-01-30T02:31:29;39.20;;;17.77;;
17145;SDS011;8688;54.444;18.444;2024-01-30T02:33:56;42.70;;;17.57;;
17145;SDS011;8688;54.444;18.444;2024-01-30T02:36:24;44.97;;;18.63;;
17145;SDS011;8688;54.444;18.444;2024-01-30T02:38:53;39.93;;;16.57;;
17145;SDS011;8688;54.444;18.444;2024-01-30T02:41:20;41.57;;;18.87;;
17145;SDS011;8688;54.444;18.444;2024-01-30T02:43:48;40.47;;;18.37;;
17145;SDS011;8688;54.444;18.444;2024-01-30T02:46:15;38.63;;;17.77;;
17145;SDS011;8688;54.444;18.444;2024-01-30T02:48:42;34.33;;;16.47;;
17145;SDS011;8688;54.444;18.444;2024-01-30T02:51:10;37.90;;;17.63;;
17145;SDS011;8688;54.444;18.444;2024-01-30T02:53:37;38.07;;;18.03;;
17145;SDS011;8688;54.444;18.444;2024-01-30T02:56:06;39.27;;;17.33;;
17145;SDS011;8688;54.444;18.444;2024-01-30T02:58:35;36.40;;;17.83;;
17145;SDS011;8688;54.444;18.444;2024-01-30T03:01:03;36.20;;;17.37;;
17145;SDS011;8688;54.444;18.444;2024-01-30T03:03:30;41.37;;;18.00;;
17145;SDS011;8688;54.444;18.444;2024-01-30T03:05:57;41.53;;;17.83;;
17145;SDS011;8688;54.444;18.444;2024-01-30T03:08:25;39.47;;;16.93;;
17145;SDS011;8688;54.444;18.444;2024-01-30T03:10:52;38.83;;;17.83;;
17145;SDS011;8688;54.444;18.444;2024-01-30T03:13:21;40.13;;;16.63;;
17145;SDS011;8688;54.444;18.444;2024-01-30T03:15:50;38.53;;;17.80;;
17145;SDS011;8688;54.444;18.444;2024-01-30T03:18:17;40.03;;;17.33;;
17145;SDS011;8688;54.444;18.444;2024-01-30T03:20:45;36.10;;;16.00;;
17145;SDS011;8688;54.444;18.444;2024-01-30T03:23:12;41.17;;;18.07;;
17145;SDS011;8688;54.444;18.444;2024-01-30T03:25:39;39.17;;;18.10;;
17145;SDS011;8688;54.444;18.444;2024-01-30T03:28:07;38.07;;;16.97;;
17145;SDS011;8688;54.444;18.444;2024-01-30T03:30:36;40.60;;;16.50;;
17145;SDS011;8688;54.444;18.444;2024-01-30T03:33:03;40.27;;;17.60;;
17145;SDS011;8688;54.444;18.444;2024-01-30T03:35:31;40.23;;;17.63;;
17145;SDS011;8688;54.444;18.444;2024-01-30T03:37:58;40.63;;;16.53;;
17145;SDS011;8688;54.444;18.444;2024-01-30T03:40:26;41.23;;;18.17;;
17145;SDS011;8688;54.444;18.444;2024-01-30T03:42:53;36.07;;;17.13;;
17145;SDS011;8688;54.444;18.444;2024-01-30T03:45:20;42.97;;;16.93;;
17145;SDS011;8688;54.444;18.444;2024-01-30T03:47:49;40.97;;;17.03;;
17145;SDS011;8688;54.444;18.444;2024-01-30T03:50:16;40.43;;;17.57;;
17145;SDS011;8688;54.444;18.444;2024-01-30T03:52:44;43.37;;;18.07;;
17145;SDS011;8688;54.444;18.444;2024-01-30T03:55:11;38.73;;;16.93;;
17145;SDS011;8688;54.444;18.444;2024-01-30T03:57:38;40.53;;;18.50;;
17145;SDS011;8688;54.444;18.444;2024-01-30T04:00:06;37.33;;;17.20;;
17145;SDS011;8688;54.444;18.444;2024-01-30T04:02:35;44.77;;;17.60;;
17145;SDS011;8688;54.444;18.444;2024-01-30T04:05:04;36.63;;;16.67;;
17145;SDS011;8688;54.444;18.444;2024-01-30T04:07:32;41.13;;;17.23;;
17145;SDS011;8688;54.444;18.444;2024-01-30T04:09:59;43.30;;;18.00;;
17145;SDS011;8688;54.444;18.444;2024-01-30T04:12:26;39.83;;;17.13;;
17145;SDS011;8688;54.444;18.444;2024-01-30T04:14:54;44.63;;;18.33;;
17145;SDS011;8688;54.444;18.444;2024-01-30T04:17:21;43.63;;;17.33;;
17145;SDS011;8688;54.444;18.444;2024-01-30T04:19:48;41.03;;;17.87;;
17145;SDS011;8688;54.444;18.444;2024-01-30T04:22:17;42.63;;;18.63;;
17145;SDS011;8688;54.444;18.444;2024-01-30T04:24:45;41.23;;;17.27;;
17145;SDS011;8688;54.444;18.444;2024-01-30T04:27:12;36.13;;;18.23;;
17145;SDS011;8688;54.444;18.444;2024-01-30T04:29:39;38.73;;;16.77;;
17145;SDS011;8688;54.444;18.444;2024-01-30T04:32:07;39.77;;;17.50;;
17145;SDS011;8688;54.444;18.444;2024-01-30T04:34:35;37.43;;;17.07;;
17145;SDS011;8688;54.444;18.444;2024-01-30T04:37:03;37.63;;;17.03;;
17145;SDS011;8688;54.444;18.444;2024-01-30T04:39:32;40.80;;;17.20;;
17145;SDS011;8688;54.444;18.444;2024-01-30T04:41:59;41.43;;;17.47;;
17145;SDS011;8688;54.444;18.444;2024-01-30T04:44:27;39.90;;;17.47;;
17145;SDS011;8688;54.444;18.444;2024-01-30T04:46:54;41.90;;;17.10;;
17145;SDS011;8688;54.444;18.444;2024-01-30T04:49:24;41.23;;;17.80;;
17145;SDS011;8688;54.444;18.444;2024-01-30T04:51:51;36.37;;;16.60;;
17145;SDS011;8688;54.444;18.444;2024-01-30T04:54:19;38.90;;;16.97;;
17145;SDS011;8688;54.444;18.444;2024-01-30T04:56:47;37.00;;;18.03;;
17145;SDS011;8688;54.444;18.444;2024-01-30T04:59:15;40.13;;;17.27;;
17145;SDS011;8688;54.444;18.444;2024-01-30T05:01:42;40.03;;;17.97;;
17145;SDS011;8688;54.444;18.444;2024-01-30T05:04:10;38.30;;;17.50;;
17145;SDS011;8688;54.444;18.444;2024-01-30T05:06:37;37.20;;;16.10;;
17145;SDS011;8688;54.444;18.444;2024-01-30T05:09:05;39.70;;;18.27;;
17145;SDS011;8688;54.444;18.444;2024-01-30T05:11:36;41.47;;;17.40;;
17145;SDS011;8688;54.444;18.444;2024-01-30T05:14:05;38.80;;;17.50;;
17145;SDS011;8688;54.444;18.444;2024-01-30T05:16:34;41.70;;;18.20;;
17145;SDS011;8688;54.444;18.444;2024-01-30T05:19:01;42.13;;;17.70;;
17145;SDS011;8688;54.444;18.444;2024-01-30T05:21:28;37.70;;;17.10;;
17145;SDS011;8688;54.444;18.444;2024-01-30T05:23:56;38.13;;;17.63;;
17145;SDS011;8688;54.444;18.444;2024-01-30T05:26:23;42.30;;;16.53;;
17145;SDS011;8688;54.444;18.444;2024-01-30T05:28:49;35.37;;;16.53;;
17145;SDS011;8688;54.444;18.444;2024-01-30T05:31:18;44.90;;;18.17;;
17145;SDS011;8688;54.444;18.444;2024-01-30T05:33:46;35.17;;;16.73;;
17145;SDS011;8688;54.444;18.444;2024-01-30T05:36:14;39.37;;;16.27;;
17145;SDS011;8688;54.444;18.444;2024-01-30T05:38:41;39.57;;;17.07;;
17145;SDS011;8688;54.444;18.444;2024-01-30T05:41:08;42.60;;;17.17;;
17145;SDS011;8688;54.444;18.444;2024-01-30T05:43:36;38.80;;;17.30;;
17145;SDS011;8688;54.444;18.444;2024-01-30T05:46:03;37.23;;;17.70;;
17145;SDS011;8688;54.444;18.444;2024-01-30T05:48:32;38.37;;;17.43;;
17145;SDS011;8688;54.444;18.444;2024-01-30T05:51:00;38.00;;;17.60;;
17145;SDS011;8688;54.444;18.444;2024-01-30T05:53:29;36.20;;;16.97;;
17145;SDS011;8688;54.444;18.444;2024-01-30T05:55:56;39.23;;;17.27;;
17145;SDS011;8688;54.444;18.444;2024-01-30T05:58:23;35.33;;;16.33;;
17145;SDS011;8688;54.444;18.444;2024-01-30T06:00:51;35.83;;;18.37;;
17145;SDS011;8688;54.444;18.444;2024-01-30T06:03:18;38.80;;;17.03;;
17145;SDS011;8688;54.444;18.444;2024-01-30T06:05:47;39.73;;;17.43;;
17145;SDS011;8688;54.444;18.444;2024-01-30T06:08:14;38.03;;;16.80;;
17145;SDS011;8688;54.444;18.444;2024-01-30T06:10:42;41.53;;;17.67;;
17145;SDS011;8688;54.444;18.444;2024-01-30T06:13:09;34.50;;;17.10;;
17145;SDS011;8688;54.444;18.444;2024-01-30T06:15:36;39.87;;;17.57;;
17145;SDS011;8688;54.444;18.444;2024-01-30T06:18:04;35.93;;;16.87;;
17145;SDS011;8688;54.444;18.444;2024-01-30T06:20:31;40.93;;;17.70;;
17145;SDS011;8688;54.444;18.444;2024-01-30T06:23:00;38.17;;;17.90;;
17145;SDS011;8688;54.444;18.444;2024-01-30T06:25:28;44.60;;;18.17;;
17145;SDS011;8688;54.444;18.444;2024-01-30T06:27:55;43.10;;;17.20;;
17145;SDS011;8688;54.444;18.444;2024-01-30T06:30:22;43.43;;;17.80;;
17145;SDS011;8688;54.444;18.444;2024-01-30T06:32:50;39.53;;;17.70;;
17145;SDS011;8688;54.444;18.444;2024-01-30T06:35:17;45.10;;;18.67;;
17145;SDS011;8688;54.444;18.444;2024-01-30T06:37:45;39.80;;;18.60;;
17145;SDS011;8688;54.444;18.444;2024-01-30T06:40:14;39.83;;;18.30;;
17145;SDS011;8688;54.444;18.444;2024-01-30T06:42:41;44.60;;;17.70;;
17145;SDS011;8688;54.444;18.444;2024-01-30T06:45:09;47.67;;;19.50;;
17145;SDS011;8688;54.444;18.444;2024-01-30T06:47:36;38.33;;;17.53;;
17145;SDS011;8688;54.444;18.444;2024-01-30T06:50:04;41.03;;;18.17;;
17145;SDS011;8688;54.444;18.444;2024-01-30T06:52:32;38.63;;;16.93;;
17145;SDS011;8688;54.444;18.444;2024-01-30T06:54:59;38.63;;;17.87;;
17145;SDS011;8688;54.444;18.444;2024-01-30T06:57:28;38.80;;;17.33;;
17145;SDS011;8688;54.444;18.444;2024-01-30T06:59:55;41.97;;;17.70;;
17145;SDS011;8688;54.444;18.444;2024-01-30T07:02:23;41.13;;;18.23;;
17145;SDS011;8688;54.444;18.444;2024-01-30T07:04:50;40.83;;;18.60;;
17145;SDS011;8688;54.444;18.444;2024-01-30T07:07:18;44.73;;;18.30;;
17145;SDS011;8688;54.444;18.444;2024-01-30T07:09:45;38.80;;;18.23;;
17145;SDS011;8688;54.444;18.444;2024-01-30T07:12:14;42.83;;;18.57;;
17145;SDS011;8688;54.444;18.444;2024-01-30T07:14:43;45.23;;;18.20;;
17145;SDS011;8688;54.444;18.444;2024-01-30T07:17:11;40.33;;;17.50;;
17145;SDS011;8688;54.444;18.444;2024-01-30T07:19:38;44.23;;;17.70;;
17145;SDS011;8688;54.444;18.444;2024-01-30T07:22:05;38.10;;;18.00;;
17145;SDS011;8688;54.444;18.444;2024-01-30T07:24:33;42.73;;;17.73;;
17145;SDS011;8688;54.444;18.444;2024-01-30T07:27:00;39.67;;;18.27;;
17145;SDS011;8688;54.444;18.444;2024-01-30T07:29:27;41.53;;;17.70;;
17145;SDS011;8688;54.444;18.444;2024-01-30T07:31:56;39.53;;;18.67;;
17145;SDS011;8688;54.444;18.444;2024-01-30T07:34:24;36.60;;;17.53;;
17145;SDS011;8688;54.444;18.444;2024-01-30T07:36:51;41.87;;;18.80;;
17145;SDS011;8688;54.444;18.444;2024-01-30T07:39:18;38.27;;;17.97;;
17145;SDS011;8688;54.444;18.444;2024-01-30T07:41:46;42.93;;;18.80;;
17145;SDS011;8688;54.444;18.444;2024-01-30T07:44:13;39.80;;;17.67;;
17145;SDS011;8688;54.444;18.444;2024-01-30T07:46:41;41.80;;;17.67;;
17145;SDS011;8688;54.444;18.444;2024-01-30T07:49:10;38.27;;;18.13;;
17145;SDS011;8688;54.444;18.444;2024-01-30T07:51:39;41.40;;;18.13;;
17145;SDS011;8688;54.444;18.444;2024-01-30T07:54:06;41.73;;;18.67;;
17145;SDS011;8688;54.444;18.444;2024-01-30T07:56:33;47.33;;;19.67;;
17145;SDS011;8688;54.444;18.444;2024-01-30T07:59:01;43.47;;;19.37;;
17145;SDS011;8688;54.444;18.444;2024-01-30T08:01:28;43.00;;;18.03;;
17145;SDS011;8688;54.444;18.444;2024-01-30T08:03:55;39.17;;;17.80;;
17145;SDS011;8688;54.444;18.444;2024-01-30T08:06:24;40.37;;;18.33;;
17145;SDS011;8688;54.444;18.444;2024-01-30T08:08:51;36.47;;;16.87;;
17145;SDS011;8688;54.444;18.444;2024-01-30T08:11:19;38.63;;;17.83;;
17145;SDS011;8688;54.444;18.444;2024-01-30T08:13:50;40.53;;;17.40;;
17145;SDS011;8688;54.444;18.444;2024-01-30T08:16:18;43.00;;;18.77;;
17145;SDS011;8688;54.444;18.444;2024-01-30T08:18:45;40.50;;;17.83;;
17145;SDS011;8688;54.444;18.444;2024-01-30T08:21:12;41.57;;;18.23;;
17145;SDS011;8688;54.444;18.444;2024-01-30T08:23:41;39.57;;;18.57;;
17145;SDS011;8688;54.444;18.444;2024-01-30T08:26:09;41.67;;;18.23;;
17145;SDS011;8688;54.444;18.444;2024-01-30T08:28:36;40.13;;;17.80;;
17145;SDS011;8688;54.444;18.444;2024-01-30T08:31:04;40.47;;;18.40;;
17145;SDS011;8688;54.444;18.444;2024-01-30T08:33:31;46.73;;;18.30;;
17145;SDS011;8688;54.444;18.444;2024-01-30T08:35:58;40.30;;;18.03;;
17145;SDS011;8688;54.444;18.444;2024-01-30T08:38:26;41.27;;;18.33;;
17145;SDS011;8688;54.444;18.444;2024-01-30T08:40:55;37.63;;;18.37;;
17145;SDS011;8688;54.444;18.444;2024-01-30T08:43:23;40.83;;;17.77;;
17145;SDS011;8688;54.444;18.444;2024-01-30T08:45:50;43.43;;;19.80;;
17145;SDS011;8688;54.444;18.444;2024-01-30T08:48:17;42.57;;;18.83;;
17145;SDS011;8688;54.444;18.444;2024-01-30T08:50:45;42.43;;;19.90;;
17145;SDS011;8688;54.444;18.444;2024-01-30T08:53:12;40.83;;;19.23;;
17145;SDS011;8688;54.444;18.444;2024-01-30T08:55:39;43.37;;;19.27;;
17145;SDS011;8688;54.444;18.444;2024-01-30T08:58:08;45.60;;;19.20;;
17145;SDS011;8688;54.444;18.444;2024-01-30T09:00:35;36.53;;;18.73;;
17145;SDS011;8688;54.444;18.444;2024-01-30T09:03:03;40.83;;;18.50;;
17145;SDS011;8688;54.444;18.444;2024-01-30T09:05:31;44.90;;;19.53;;
17145;SDS011;8688;54.444;18.444;2024-01-30T09:07:58;46.50;;;23.17;;
17145;SDS011;8688;54.444;18.444;2024-01-30T09:10:25;40.47;;;19.23;;
17145;SDS011;8688;54.444;18.444;2024-01-30T09:12:53;43.77;;;19.53;;
17145;SDS011;8688;54.444;18.444;2024-01-30T09:15:22;44.67;;;20.13;;
17145;SDS011;8688;54.444;18.444;2024-01-30T09:17:49;41.37;;;19.33;;
17145;SDS011;8688;54.444;18.444;2024-01-30T09:20:16;38.93;;;17.77;;
17145;SDS011;8688;54.444;18.444;2024-01-30T09:22:45;37.63;;;17.17;;
17145;SDS011;8688;54.444;18.444;2024-01-30T09:25:13;39.03;;;18.60;;
17145;SDS011;8688;54.444;18.444;2024-01-30T09:27:40;35.17;;;17.03;;
17145;SDS011;8688;54.444;18.444;2024-01-30T09:30:08;37.03;;;18.70;;
17145;SDS011;8688;54.444;18.444;2024-01-30T09:32:37;35.27;;;17.30;;
17145;SDS011;8688;54.444;18.444;2024-01-30T09:35:06;40.43;;;18.80;;
17145;SDS011;8688;54.444;18.444;2024-01-30T09:37:33;37.50;;;17.27;;
17145;SDS011;8688;54.444;18.444;2024-01-30T09:40:01;34.70;;;16.40;;
17145;SDS011;8688;54.444;18.444;2024-01-30T09:42:33;34.47;;;16.87;;
17145;SDS011;8688;54.444;18.444;2024-01-30T09:45:01;32.93;;;15.00;;
17145;SDS011;8688;54.444;18.444;2024-01-30T09:47:30;28.23;;;14.37;;
17145;SDS011;8688;54.444;18.444;2024-01-30T09:50:00;30.00;;;15.20;;
17145;SDS011;8688;54.444;18.444;2024-01-30T09:52:31;29.30;;;14.60;;
17145;SDS011;8688;54.444;18.444;2024-01-30T09:54:59;31.50;;;15.47;;
17145;SDS011;8688;54.444;18.444;2024-01-30T09:57:27;33.00;;;15.27;;
17145;SDS011;8688;54.444;18.444;2024-01-30T09:59:55;32.17;;;15.13;;
17145;SDS011;8688;54.444;18.444;2024-01-30T10:02:22;34.70;;;15.20;;
17145;SDS011;8688;54.444;18.444;2024-01-30T10:04:50;35.13;;;15.73;;
17145;SDS011;8688;54.444;18.444;2024-01-30T10:07:20;36.73;;;16.27;;
17145;SDS011;8688;54.444;18.444;2024-01-30T10:09:48;30.83;;;16.37;;
17145;SDS011;8688;54.444;18.444;2024-01-30T10:12:15;34.57;;;17.47;;
17145;SDS011;8688;54.444;18.444;2024-01-30T10:14:43;35.40;;;17.07;;
17145;SDS011;8688;54.444;18.444;2024-01-30T10:17:10;40.87;;;17.23;;
17145;SDS011;8688;54.444;18.444;2024-01-30T10:19:39;36.03;;;17.27;;
17145;SDS011;8688;54.444;18.444;2024-01-30T10:22:07;43.87;;;19.00;;
17145;SDS011;8688;54.444;18.444;2024-01-30T10:24:37;39.33;;;17.50;;
17145;SDS011;8688;54.444;18.444;2024-01-30T10:27:05;40.50;;;18.27;;
17145;SDS011;8688;54.444;18.444;2024-01-30T10:29:33;30.87;;;18.03;;
17145;SDS011;8688;54.444;18.444;2024-01-30T10:32:01;40.13;;;18.27;;
17145;SDS011;8688;54.444;18.444;2024-01-30T10:34:28;41.53;;;18.60;;
17145;SDS011;8688;54.444;18.444;2024-01-30T10:36:59;39.57;;;17.30;;
17145;SDS011;8688;54.444;18.444;2024-01-30T10:39:29;33.23;;;15.43;;
17145;SDS011;8688;54.444;18.444;2024-01-30T10:42:01;29.57;;;14.73;;
17145;SDS011;8688;54.444;18.444;2024-01-30T10:44:33;29.67;;;14.40;;
17145;SDS011;8688;54.444;18.444;2024-01-30T10:47:09;29.57;;;14.77;;
17145;SDS011;8688;54.444;18.444;2024-01-30T10:49:39;30.23;;;14.87;;
17145;SDS011;8688;54.444;18.444;2024-01-30T10:52:09;34.77;;;15.80;;
17145;SDS011;8688;54.444;18.444;2024-01-30T10:54:39;34.90;;;14.97;;
17145;SDS011;8688;54.444;18.444;2024-01-30T10:57:11;31.17;;;14.87;;
17145;SDS011;8688;54.444;18.444;2024-01-30T10:59:38;33.17;;;16.03;;
17145;SDS011;8688;54.444;18.444;2024-01-30T11:02:06;32.60;;;14.50;;
17145;SDS011;8688;54.444;18.444;2024-01-30T11:04:37;26.63;;;13.50;;
17145;SDS011;8688;54.444;18.444;2024-01-30T11:07:13;32.33;;;14.47;;
17145;SDS011;8688;54.444;18.444;2024-01-30T11:09:48;27.93;;;12.87;;
17145;SDS011;8688;54.444;18.444;2024-01-30T11:12:20;25.30;;;12.97;;
17145;SDS011;8688;54.444;18.444;2024-01-30T11:14:49;28.73;;;13.63;;
17145;SDS011;8688;54.444;18.444;2024-01-30T11:17:17;29.73;;;14.03;;
17145;SDS011;8688;54.444;18.444;2024-01-30T11:19:44;33.17;;;14.68;;
17145;SDS011;8688;54.444;18.444;2024-01-30T11:22:13;28.80;;;15.37;;
17145;SDS011;8688;54.444;18.444;2024-01-30T11:24:40;30.73;;;14.33;;
17145;SDS011;8688;54.444;18.444;2024-01-30T11:27:08;27.63;;;13.97;;
17145;SDS011;8688;54.444;18.444;2024-01-30T11:29:38;27.83;;;13.80;;
17145;SDS011;8688;54.444;18.444;2024-01-30T11:32:07;29.43;;;14.10;;
17145;SDS011;8688;54.444;18.444;2024-01-30T11:34:34;30.23;;;13.95;;
17145;SDS011;8688;54.444;18.444;2024-01-30T11:37:09;28.55;;;13.95;;
17145;SDS011;8688;54.444;18.444;2024-01-30T11:39:38;25.60;;;12.87;;
17145;SDS011;8688;54.444;18.444;2024-01-30T11:42:07;30.33;;;13.13;;
17145;SDS011;8688;54.444;18.444;2024-01-30T11:44:35;28.03;;;13.97;;
17145;SDS011;8688;54.444;18.444;2024-01-30T11:47:04;29.17;;;13.20;;
17145;SDS011;8688;54.444;18.444;2024-01-30T11:49:31;27.13;;;14.20;;
17145;SDS011;8688;54.444;18.444;2024-01-30T11:51:59;34.40;;;16.85;;
17145;SDS011;8688;54.444;18.444;2024-01-30T11:54:26;25.80;;;12.93;;
17145;SDS011;8688;54.444;18.444;2024-01-30T11:56:54;30.02;;;15.10;;
17145;SDS011;8688;54.444;18.444;2024-01-30T11:59:21;31.10;;;14.50;;
17145;SDS011;8688;54.444;18.444;2024-01-30T12:01:48;29.00;;;15.43;;
17145;SDS011;8688;54.444;18.444;2024-01-30T12:04:19;34.03;;;15.48;;
17145;SDS011;8688;54.444;18.444;2024-01-30T12:06:50;29.52;;;14.95;;
17145;SDS011;8688;54.444;18.444;2024-01-30T12:09:18;29.38;;;15.43;;
17145;SDS011;8688;54.444;18.444;2024-01-30T12:11:45;32.67;;;15.35;;
17145;SDS011;8688;54.444;18.444;2024-01-30T12:14:13;29.45;;;14.90;;
17145;SDS011;8688;54.444;18.444;2024-01-30T12:16:41;29.95;;;14.27;;
17145;SDS011;8688;54.444;18.444;2024-01-30T12:19:09;31.58;;;14.70;;
17145;SDS011;8688;54.444;18.444;2024-01-30T12:21:38;28.90;;;13.95;;
17145;SDS011;8688;54.444;18.444;2024-01-30T12:24:05;28.50;;;14.15;;
17145;SDS011;8688;54.444;18.444;2024-01-30T12:26:33;27.92;;;14.43;;
17145;SDS011;8688;54.444;18.444;2024-01-30T12:29:03;30.80;;;15.88;;
17145;SDS011;8688;54.444;18.444;2024-01-30T12:31:31;28.38;;;13.65;;
17145;SDS011;8688;54.444;18.444;2024-01-30T12:33:59;33.58;;;14.90;;
17145;SDS011;8688;54.444;18.444;2024-01-30T12:36:27;30.95;;;15.25;;
17145;SDS011;8688;54.444;18.444;2024-01-30T12:38:58;26.30;;;13.18;;
17145;SDS011;8688;54.444;18.444;2024-01-30T12:41:25;28.50;;;13.20;;
17145;SDS011;8688;54.444;18.444;2024-01-30T12:43:54;27.83;;;14.10;;
17145;SDS011;8688;54.444;18.444;2024-01-30T12:46:25;26.75;;;13.52;;
17145;SDS011;8688;54.444;18.444;2024-01-30T12:48:55;26.07;;;13.90;;
17145;SDS011;8688;54.444;18.444;2024-01-30T12:51:22;28.20;;;13.90;;
17145;SDS011;8688;54.444;18.444;2024-01-30T12:53:50;28.42;;;13.52;;
17145;SDS011;8688;54.444;18.444;2024-01-30T12:56:18;31.05;;;15.20;;
17145;SDS011;8688;54.444;18.444;2024-01-30T12:58:46;35.95;;;15.13;;
17145;SDS011;8688;54.444;18.444;2024-01-30T13:01:13;26.93;;;13.73;;
17145;SDS011;8688;54.444;18.444;2024-01-30T13:03:40;28.15;;;13.65;;
17145;SDS011;8688;54.444;18.444;2024-01-30T13:06:08;33.03;;;14.87;;
17145;SDS011;8688;54.444;18.444;2024-01-30T13:08:35;32.33;;;14.65;;
17145;SDS011;8688;54.444;18.444;2024-01-30T13:11:02;30.92;;;15.48;;
17145;SDS011;8688;54.444;18.444;2024-01-30T13:13:31;34.40;;;16.03;;
17145;SDS011;8688;54.444;18.444;2024-01-30T13:16:00;28.10;;;15.13;;
17145;SDS011;8688;54.444;18.444;2024-01-30T13:18:28;31.17;;;16.33;;
17145;SDS011;8688;54.444;18.444;2024-01-30T13:20:55;32.80;;;15.32;;
17145;SDS011;8688;54.444;18.444;2024-01-30T13:23:22;32.30;;;15.87;;
17145;SDS011;8688;54.444;18.444;2024-01-30T13:25:50;35.80;;;17.35;;
17145;SDS011;8688;54.444;18.444;2024-01-30T13:28:20;35.63;;;16.50;;
17145;SDS011;8688;54.444;18.444;2024-01-30T13:30:49;33.93;;;17.97;;
17145;SDS011;8688;54.444;18.444;2024-01-30T13:33:16;34.65;;;16.50;;
17145;SDS011;8688;54.444;18.444;2024-01-30T13:35:44;35.00;;;16.97;;
17145;SDS011;8688;54.444;18.444;2024-01-30T13:38:11;42.40;;;19.53;;
17145;SDS011;8688;54.444;18.444;2024-01-30T13:40:39;33.53;;;18.20;;
17145;SDS011;8688;54.444;18.444;2024-01-30T13:43:06;39.77;;;18.87;;
17145;SDS011;8688;54.444;18.444;2024-01-30T13:45:33;40.17;;;17.93;;
17145;SDS011;8688;54.444;18.444;2024-01-30T13:48:03;33.27;;;17.10;;
17145;SDS011;8688;54.444;18.444;2024-01-30T13:50:31;36.33;;;17.60;;
17145;SDS011;8688;54.444;18.444;2024-01-30T13:52:59;38.37;;;16.63;;
17145;SDS011;8688;54.444;18.444;2024-01-30T13:55:26;30.00;;;15.43;;
17145;SDS011;8688;54.444;18.444;2024-01-30T13:57:54;28.33;;;15.63;;
17145;SDS011;8688;54.444;18.444;2024-01-30T14:00:21;45.78;;;22.42;;
17145;SDS011;8688;54.444;18.444;2024-01-30T14:02:50;41.20;;;20.63;;
17145;SDS011;8688;54.444;18.444;2024-01-30T14:05:21;57.77;;;27.63;;
17145;SDS011;8688;54.444;18.444;2024-01-30T14:07:49;69.50;;;30.33;;
17145;SDS011;8688;54.444;18.444;2024-01-30T14:10:16;54.80;;;25.47;;
17145;SDS011;8688;54.444;18.444;2024-01-30T14:12:43;48.97;;;24.47;;
17145;SDS011;8688;54.444;18.444;2024-01-30T14:15:13;66.03;;;28.10;;
17145;SDS011;8688;54.444;18.444;2024-01-30T14:17:43;78.00;;;30.83;;
17145;SDS011;8688;54.444;18.444;2024-01-30T14:20:10;69.63;;;28.40;;
17145;SDS011;8688;54.444;18.444;2024-01-30T14:22:39;73.53;;;28.83;;
17145;SDS011;8688;54.444;18.444;2024-01-30T14:25:07;50.30;;;21.90;;
17145;SDS011;8688;54.444;18.444;2024-01-30T14:27:35;43.47;;;20.57;;